createdAt,value
2018-07-23T00:03:29.215Z,100018.80
2018-07-23T00:08:33.134Z,100017.11
2018-07-23T00:13:38.001Z,100024.91
2018-07-23T00:18:42.357Z,100035.44
2018-07-23T00:23:46.171Z,100041.36
2018-07-23T00:28:50.920Z,100032.69
2018-07-23T00:33:55.275Z,100036.67
2018-07-23T00:38:58.868Z,100041.03
2018-07-23T00:44:03.221Z,100040.92
2018-07-23T00:49:07.341Z,100039.08
2018-07-23T00:54:11.372Z,100037.41
2018-07-23T00:59:15.397Z,100046.31
2018-07-23T01:04:19.911Z,100050.48
2018-07-23T01:09:24.059Z,100053.99
2018-07-23T01:14:28.457Z,100053.56
2018-07-23T01:19:32.110Z,100049.38
2018-07-23T01:24:35.712Z,100057.09
2018-07-23T01:29:39.357Z,100063.46
2018-07-23T01:34:43.571Z,100064.23
2018-07-23T01:39:47.685Z,100070.48
2018-07-23T01:44:51.770Z,100072.34
2018-07-23T01:49:55.766Z,100073.53
2018-07-23T01:54:59.440Z,100080.23
2018-07-23T02:00:03.625Z,100080.23
2018-07-23T02:05:08.389Z,100082.31
2018-07-23T02:10:11.858Z,100076.59
2018-07-23T02:15:16.441Z,100077.73
2018-07-23T02:20:20.414Z,100077.38
2018-07-23T02:25:24.778Z,100074.66
2018-07-23T02:30:28.370Z,100082.01
2018-07-23T02:35:32.203Z,100087.48
2018-07-23T02:40:35.782Z,100082.55
2018-07-23T02:45:39.293Z,100081.02
2018-07-23T02:50:42.827Z,100083.64
2018-07-23T02:55:46.381Z,100084.84
2018-07-23T03:00:49.929Z,100083.88
2018-07-23T03:05:53.628Z,100084.75
2018-07-23T03:10:57.450Z,100092.42
2018-07-23T03:16:00.963Z,100093.83
2018-07-23T03:21:04.635Z,100095.45
2018-07-23T03:26:08.137Z,100104.66
2018-07-23T03:31:11.841Z,100104.23
2018-07-23T03:36:15.292Z,100110.05
2018-07-23T03:41:18.799Z,100120.22
2018-07-23T03:46:22.451Z,100123.19
2018-07-23T03:51:26.291Z,100123.76
2018-07-23T03:56:29.841Z,100132.73
2018-07-23T04:01:33.314Z,100119.80
2018-07-23T04:06:36.827Z,100133.08
2018-07-23T04:11:40.373Z,100131.41
2018-07-23T04:16:43.946Z,100130.06
2018-07-23T04:21:47.508Z,100134.52
2018-07-23T04:26:51.022Z,100138.13
2018-07-23T04:31:54.528Z,100140.08
2018-07-23T04:36:58.214Z,100137.00
2018-07-23T04:42:02.190Z,100140.06
2018-07-23T04:47:05.946Z,100135.22
2018-07-23T04:52:09.554Z,100138.29
2018-07-23T04:57:13.133Z,100149.89
2018-07-23T05:02:16.594Z,100148.00
2018-07-23T05:07:20.046Z,100155.59
2018-07-23T05:12:23.587Z,100170.01
2018-07-23T05:17:27.151Z,100176.47
2018-07-23T05:22:30.783Z,100178.43
2018-07-23T05:27:34.290Z,100177.59
2018-07-23T05:32:37.797Z,100181.21
2018-07-23T05:37:41.483Z,100189.19
2018-07-23T05:42:45.268Z,100186.55
2018-07-23T05:47:48.779Z,100178.48
2018-07-23T05:52:52.481Z,100183.83
2018-07-23T05:57:56.238Z,100188.22
2018-07-23T06:02:59.751Z,100191.30
2018-07-23T06:08:03.563Z,100197.62
2018-07-23T06:13:07.932Z,100204.38
2018-07-23T06:18:11.444Z,100201.56
2018-07-23T06:23:15.181Z,100204.83
2018-07-23T06:28:18.893Z,100204.17
2018-07-23T06:33:22.386Z,100200.67
2018-07-23T06:38:25.871Z,100203.52
2018-07-23T06:43:29.581Z,100201.14
2018-07-23T06:48:33.177Z,100208.83
2018-07-23T06:53:36.665Z,100212.80
2018-07-23T06:58:40.210Z,100212.34
2018-07-23T07:03:43.713Z,100216.97
2018-07-23T07:08:47.406Z,100223.44
2018-07-23T07:13:50.879Z,100223.97
2018-07-23T07:18:54.563Z,100226.94
2018-07-23T07:23:58.505Z,100219.51
2018-07-23T07:29:02.029Z,100227.88
2018-07-23T07:34:05.798Z,100221.75
2018-07-23T07:39:11.498Z,100223.11
2018-07-23T07:44:14.964Z,100228.92
2018-07-23T07:49:18.544Z,100229.78
2018-07-23T07:54:22.066Z,100234.64
2018-07-23T07:59:25.543Z,100230.78
2018-07-23T08:04:29.073Z,100231.79
2018-07-23T08:09:32.626Z,100239.00
2018-07-23T08:14:36.183Z,100233.89
2018-07-23T08:19:39.875Z,100229.38
2018-07-23T08:24:43.750Z,100229.50
2018-07-23T08:29:47.165Z,100231.80
2018-07-23T08:34:50.709Z,100230.92
2018-07-23T08:39:54.233Z,100231.59
2018-07-23T08:44:58.105Z,100219.77
2018-07-23T08:50:01.780Z,100230.28
2018-07-23T08:55:05.745Z,100233.36
2018-07-23T09:00:13.084Z,100235.52
2018-07-23T09:10:25.572Z,100228.62
2018-07-23T09:15:29.053Z,100222.50
2018-07-23T09:20:32.558Z,100228.09
2018-07-23T09:25:41.405Z,100233.56
2018-07-23T09:30:52.101Z,100239.17
2018-07-23T09:35:55.539Z,100231.16
2018-07-23T09:40:59.234Z,100225.90
2018-07-23T09:46:02.776Z,100223.05
2018-07-23T09:51:07.116Z,100220.86
2018-07-23T09:56:10.629Z,100213.73
2018-07-23T10:01:17.967Z,100210.34
2018-07-23T10:06:21.453Z,100208.80
2018-07-23T10:11:24.877Z,100207.06
2018-07-23T10:16:28.513Z,100211.55
2018-07-23T10:21:32.190Z,100211.45
2018-07-23T10:26:35.805Z,100212.20
2018-07-23T10:31:39.282Z,100204.41
2018-07-23T10:36:42.949Z,100200.25
2018-07-23T10:41:46.769Z,100199.72
2018-07-23T10:46:50.381Z,100193.48
2018-07-23T10:51:53.879Z,100194.51
2018-07-23T10:56:57.518Z,100190.89
2018-07-23T11:02:01.075Z,100184.61
2018-07-23T11:07:04.664Z,100189.09
2018-07-23T11:12:08.988Z,100196.59
2018-07-23T11:17:12.557Z,100188.69
2018-07-23T11:22:16.114Z,100180.14
2018-07-23T11:27:19.849Z,100182.42
2018-07-23T11:32:23.333Z,100179.69
2018-07-23T11:37:27.129Z,100180.34
2018-07-23T11:42:30.896Z,100171.78
2018-07-23T11:47:34.603Z,100178.48
2018-07-23T11:52:38.113Z,100178.38
2018-07-23T11:57:41.598Z,100169.59
2018-07-23T12:02:45.257Z,100167.52
2018-07-23T12:07:49.124Z,100167.97
2018-07-23T12:12:52.760Z,100171.25
2018-07-23T12:17:56.252Z,100167.97
2018-07-23T12:22:59.722Z,100157.53
2018-07-23T12:28:03.265Z,100152.72
2018-07-23T12:33:06.805Z,100150.30
2018-07-23T12:38:10.228Z,100145.37
2018-07-23T12:43:13.721Z,100138.28
2018-07-23T12:48:17.251Z,100142.97
2018-07-23T12:53:21.443Z,100140.73
2018-07-23T12:58:25.145Z,100141.72
2018-07-23T13:03:28.888Z,100134.28
2018-07-23T13:08:32.495Z,100132.94
2018-07-23T13:13:36.322Z,100126.46
2018-07-23T13:18:40.250Z,100125.50
2018-07-23T13:23:43.962Z,100124.08
2018-07-23T13:28:47.697Z,100126.38
2018-07-23T13:33:51.292Z,100125.80
2018-07-23T13:38:55.133Z,100127.80
2018-07-23T13:43:58.857Z,100118.22
2018-07-23T13:49:02.467Z,100114.81
2018-07-23T13:54:06.142Z,100112.50
2018-07-23T13:59:09.804Z,100104.81
2018-07-23T14:04:13.559Z,100103.38
2018-07-23T14:09:17.576Z,100102.20
2018-07-23T14:14:21.372Z,100096.56
2018-07-23T14:19:24.783Z,100102.05
2018-07-23T14:24:28.485Z,100097.55
2018-07-23T14:29:31.985Z,100083.72
2018-07-23T14:34:35.521Z,100085.63
2018-07-23T14:39:39.554Z,100089.64
2018-07-23T14:44:43.020Z,100086.55
2018-07-23T14:49:46.709Z,100085.36
2018-07-23T14:54:50.307Z,100079.35
2018-07-23T14:59:54.867Z,100072.61
2018-07-23T15:04:58.646Z,100065.98
2018-07-23T15:10:02.302Z,100068.60
2018-07-23T15:15:05.990Z,100064.20
2018-07-23T15:20:09.617Z,100056.59
2018-07-23T15:25:13.431Z,100060.93
2018-07-23T15:30:16.935Z,100060.09
2018-07-23T15:35:20.492Z,100055.32
2018-07-23T15:40:24.201Z,100060.64
2018-07-23T15:45:28.137Z,100063.66
2018-07-23T15:50:31.753Z,100044.92
2018-07-23T15:55:35.341Z,100048.17
2018-07-23T16:00:38.814Z,100050.64
2018-07-23T16:05:42.590Z,100048.06
2018-07-23T16:10:46.440Z,100055.91
2018-07-23T16:15:49.882Z,100054.87
2018-07-23T16:20:53.517Z,100050.44
2018-07-23T16:25:57.157Z,100053.63
2018-07-23T16:31:00.895Z,100051.81
2018-07-23T16:36:04.462Z,100049.33
2018-07-23T16:41:08.120Z,100041.39
2018-07-23T16:46:11.713Z,100052.27
2018-07-23T16:51:15.234Z,100050.02
2018-07-23T16:56:18.875Z,100051.65
2018-07-23T17:01:22.741Z,100055.28
2018-07-23T17:06:26.477Z,100056.33
2018-07-23T17:11:30.031Z,100062.07
2018-07-23T17:16:33.670Z,100060.13
2018-07-23T17:21:37.897Z,100061.97
2018-07-23T17:26:41.419Z,100062.11
2018-07-23T17:31:45.336Z,100061.17
2018-07-23T17:36:49.373Z,100061.23
2018-07-23T17:41:52.909Z,100067.83
2018-07-23T17:46:56.492Z,100073.23
2018-07-23T17:52:00.865Z,100070.86
2018-07-23T17:57:04.624Z,100074.66
2018-07-23T18:02:08.813Z,100071.77
2018-07-23T18:07:12.465Z,100070.48
2018-07-23T18:12:17.137Z,100071.95
2018-07-23T18:17:20.629Z,100075.95
2018-07-23T18:22:24.227Z,100075.30
2018-07-23T18:27:28.190Z,100078.85
2018-07-23T18:32:31.717Z,100065.08
2018-07-23T18:37:35.440Z,100095.77
2018-07-23T18:42:39.017Z,100094.05
2018-07-23T18:47:43.720Z,100096.19
2018-07-23T18:52:47.246Z,100102.92
2018-07-23T18:57:50.781Z,100111.73
2018-07-23T19:02:54.758Z,100123.18
2018-07-23T19:07:58.270Z,100127.78
2018-07-23T19:13:02.070Z,100132.39
2018-07-23T19:18:06.091Z,100137.73
2018-07-23T19:23:09.935Z,100142.02
2018-07-23T19:28:13.458Z,100148.51
2018-07-23T19:33:17.232Z,100153.56
2018-07-23T19:38:20.865Z,100162.46
2018-07-23T19:43:24.576Z,100148.98
2018-07-23T19:48:28.278Z,100164.95
2018-07-23T19:53:32.154Z,100169.34
2018-07-23T19:58:35.826Z,100177.81
2018-07-23T20:03:39.644Z,100178.34
2018-07-23T20:08:43.090Z,100174.05
2018-07-23T20:13:46.553Z,100178.23
2018-07-23T20:18:50.071Z,100176.70
2018-07-23T20:23:53.543Z,100189.78
2018-07-23T20:28:57.478Z,100182.70
2018-07-23T20:34:01.005Z,100165.06
2018-07-23T20:39:06.364Z,100182.87
2018-07-23T20:44:09.966Z,100177.71
2018-07-23T20:49:14.727Z,100180.68
2018-07-23T20:54:18.977Z,100173.73
2018-07-23T20:59:22.927Z,100177.81
2018-07-23T21:04:26.732Z,100185.34
2018-07-23T21:09:31.172Z,100189.64
2018-07-23T21:14:35.291Z,100183.36
2018-07-23T21:19:39.438Z,100196.47
2018-07-23T21:24:43.425Z,100196.78
2018-07-23T21:29:47.008Z,100199.44
2018-07-23T21:34:50.565Z,100204.49
2018-07-23T21:39:54.110Z,100203.12
2018-07-23T21:44:58.542Z,100208.17
2018-07-23T21:50:02.066Z,100207.12
2018-07-23T21:55:07.181Z,100209.20
2018-07-23T22:00:14.809Z,100209.50
2018-07-23T22:05:18.597Z,100214.38
2018-07-23T22:10:22.212Z,100215.59
2018-07-23T22:15:25.846Z,100218.27
2018-07-23T22:20:29.418Z,100218.27
2018-07-23T22:25:33.081Z,100211.01
2018-07-23T22:30:36.673Z,100216.30
2018-07-23T22:35:40.638Z,100217.33
2018-07-23T22:40:44.481Z,100216.34
2018-07-23T22:45:48.274Z,100215.47
2018-07-23T22:50:51.889Z,100217.72
2018-07-23T22:55:55.571Z,100218.59
2018-07-23T23:00:59.305Z,100218.27
2018-07-23T23:06:03.119Z,100225.52
2018-07-23T23:11:06.570Z,100227.72
2018-07-23T23:16:10.474Z,100224.64
2018-07-23T23:21:13.988Z,100222.81
2018-07-23T23:26:17.857Z,100220.41
2018-07-23T23:31:21.448Z,100227.47
2018-07-23T23:36:25.103Z,100222.70
2018-07-23T23:41:28.665Z,100220.88
2018-07-23T23:46:32.384Z,100212.41
2018-07-23T23:51:35.937Z,100206.23
2018-07-23T23:56:39.434Z,100209.53
